createdAt,value
2023-02-13T05:29:27.154Z,1.63
2023-02-13T05:34:30.391Z,2.15
2023-02-13T05:39:33.005Z,2.40
2023-02-13T05:44:35.629Z,2.17
2023-02-13T05:49:38.299Z,2.45
2023-02-13T05:54:41.108Z,2.40
2023-02-13T05:59:45.162Z,2.33
2023-02-13T06:04:49.938Z,2.30
2023-02-13T06:09:52.663Z,2.35
2023-02-13T06:14:55.290Z,1.80
2023-02-13T06:19:58.116Z,2.58
2023-02-13T06:25:00.983Z,2.88
2023-02-13T06:30:05.648Z,3.03
2023-02-13T06:35:09.151Z,2.60
2023-02-13T06:40:14.182Z,2.90
2023-02-13T06:45:17.243Z,2.53
2023-02-13T06:50:19.972Z,2.50
2023-02-13T06:55:22.599Z,3.13
2023-02-13T07:00:27.171Z,3.05
2023-02-13T07:05:30.123Z,2.88
2023-02-13T07:10:32.922Z,3.47
2023-02-13T07:15:37.011Z,3.80
2023-02-13T07:20:40.015Z,3.67
2023-02-13T07:25:42.886Z,3.25
2023-02-13T07:30:45.781Z,3.28
2023-02-13T07:35:49.827Z,2.92
2023-02-13T07:40:52.870Z,4.15
2023-02-13T07:46:02.360Z,2.88
2023-02-13T07:51:07.393Z,4.05
2023-02-13T07:56:11.453Z,4.22
2023-02-13T08:01:20.603Z,4.43
2023-02-13T08:06:26.191Z,3.65
2023-02-13T08:11:53.253Z,3.83
2023-02-13T08:16:56.781Z,5.10
2023-02-13T08:21:59.587Z,4.88
2023-02-13T08:27:03.429Z,4.55
2023-02-13T08:32:06.465Z,4.25
2023-02-13T08:37:10.584Z,3.78
2023-02-13T08:42:15.865Z,4.80
2023-02-13T08:47:19.071Z,4.40
2023-02-13T08:52:21.817Z,4.50
2023-02-13T08:57:24.477Z,4.28
2023-02-13T09:02:27.349Z,4.72
2023-02-13T09:07:30.094Z,5.03
2023-02-13T09:12:33.198Z,4.90
2023-02-13T09:17:35.991Z,5.50
2023-02-13T09:22:38.695Z,4.68
2023-02-13T09:27:41.733Z,6.10
2023-02-13T09:32:44.510Z,4.45
2023-02-13T09:37:47.408Z,5.32
2023-02-13T09:42:53.406Z,4.22
2023-02-13T09:47:59.362Z,5.07
2023-02-13T09:53:04.916Z,5.03
2023-02-13T09:58:24.127Z,5.15
2023-02-13T10:09:04.817Z,4.47
2023-02-13T10:35:18.376Z,6.65
2023-02-13T10:40:21.478Z,6.40
2023-02-13T10:45:52.028Z,6.10
2023-02-13T10:51:25.500Z,6.03
2023-02-13T11:02:03.772Z,6.07
2023-02-13T11:07:14.993Z,5.88
2023-02-13T11:12:34.562Z,5.60
2023-02-13T11:17:40.982Z,5.13
2023-02-13T11:22:43.822Z,4.57
2023-02-13T11:27:49.697Z,4.78
2023-02-13T11:33:03.302Z,5.22
2023-02-13T11:43:37.185Z,5.30
2023-02-13T11:48:40.584Z,4.38
2023-02-13T11:53:43.555Z,5.22
2023-02-13T11:58:46.333Z,4.70
2023-02-13T12:09:16.601Z,4.35
2023-02-13T12:19:46.967Z,4.70
2023-02-13T12:56:58.489Z,7.85
2023-02-13T13:02:27.814Z,6.63
2023-02-13T13:28:27.241Z,12.05
2023-02-13T13:33:31.169Z,6.80
2023-02-13T13:54:52.857Z,6.05
2023-02-13T14:20:59.258Z,5.75
2023-02-13T14:31:33.394Z,5.32
2023-02-13T14:36:41.042Z,5.38
2023-02-13T14:46:57.172Z,4.97
2023-02-13T14:52:05.094Z,5.20
2023-02-13T15:02:46.988Z,4.80
2023-02-13T15:13:02.896Z,5.68
2023-02-13T15:18:20.248Z,5.28
2023-02-13T15:23:26.920Z,5.63
2023-02-13T15:28:31.157Z,5.75
2023-02-13T15:33:51.430Z,5.22
2023-02-13T15:39:09.690Z,4.82
2023-02-13T15:44:23.547Z,5.35
2023-02-13T15:49:27.648Z,5.82
2023-02-13T15:54:33.524Z,5.03
2023-02-13T15:59:39.585Z,5.90
2023-02-13T16:09:45.662Z,6.38
2023-02-13T16:14:53.938Z,5.65
2023-02-13T16:20:01.022Z,5.03
2023-02-13T16:30:42.531Z,5.25
2023-02-13T16:41:04.358Z,5.35
2023-02-13T16:51:34.720Z,5.68
2023-02-13T17:02:30.768Z,5.95
2023-02-13T17:12:53.276Z,4.50
2023-02-13T17:18:00.067Z,5.05
2023-02-13T17:23:07.825Z,4.55
2023-02-13T17:33:30.857Z,5.28
2023-02-13T17:38:38.107Z,5.05
2023-02-13T17:43:41.356Z,5.68
2023-02-13T17:48:45.064Z,5.30
2023-02-13T17:53:48.141Z,4.53
2023-02-13T17:58:50.810Z,4.88
2023-02-13T18:03:53.540Z,5.28
2023-02-13T18:08:56.587Z,4.65
2023-02-13T18:13:59.595Z,5.15
2023-02-13T18:19:02.309Z,4.80
2023-02-13T18:24:05.221Z,4.45
2023-02-13T18:29:07.879Z,4.40
2023-02-13T18:34:10.622Z,3.78
2023-02-13T18:39:13.600Z,4.55
2023-02-13T18:44:26.991Z,3.92
2023-02-13T18:49:31.058Z,5.65
2023-02-13T18:54:34.048Z,5.63
2023-02-13T18:59:36.638Z,5.13
2023-02-13T19:04:40.604Z,5.32
2023-02-13T19:09:44.908Z,6.03
2023-02-13T19:14:48.246Z,5.88
2023-02-13T19:19:51.861Z,4.88
2023-02-13T19:24:54.509Z,4.35
2023-02-13T19:29:57.158Z,5.53
2023-02-13T19:34:59.862Z,5.13
2023-02-13T19:40:02.715Z,5.40
2023-02-13T19:45:05.892Z,5.93
2023-02-13T19:50:10.029Z,6.60
2023-02-13T19:55:12.768Z,6.35
2023-02-13T20:00:16.108Z,5.35
2023-02-13T20:05:18.969Z,5.78
2023-02-13T20:10:21.728Z,5.88
2023-02-13T20:15:25.799Z,6.32
2023-02-13T20:20:28.402Z,6.15
2023-02-13T20:25:32.424Z,5.22
2023-02-13T20:30:35.244Z,5.10
2023-02-13T20:35:39.204Z,6.40
2023-02-13T20:40:41.828Z,6.07
2023-02-13T20:45:44.792Z,5.47
2023-02-13T20:50:58.671Z,5.65
2023-02-13T20:56:11.781Z,5.45
2023-02-13T21:06:31.389Z,5.85
2023-02-13T21:11:35.811Z,5.43
2023-02-13T21:16:40.396Z,5.32
2023-02-13T21:21:44.335Z,6.47
2023-02-13T21:26:49.448Z,5.60
2023-02-13T21:31:52.205Z,4.75
2023-02-13T21:36:55.154Z,5.35
2023-02-13T21:41:58.044Z,5.07
2023-02-13T21:47:00.692Z,6.13
2023-02-13T21:52:03.795Z,5.25
2023-02-13T21:57:06.423Z,7.15
2023-02-13T22:02:10.840Z,7.07
2023-02-13T22:07:13.715Z,7.00
2023-02-13T22:12:16.337Z,5.63
2023-02-13T22:17:20.893Z,6.00
2023-02-13T22:22:24.556Z,5.97
2023-02-13T22:27:27.125Z,5.07
2023-02-13T22:32:29.787Z,4.90
2023-02-13T22:37:32.794Z,5.78
2023-02-13T22:42:35.536Z,5.18
2023-02-13T22:47:38.132Z,5.78
2023-02-13T22:52:40.815Z,5.97
2023-02-13T22:57:43.492Z,5.63
2023-02-13T23:02:46.178Z,5.53
2023-02-13T23:07:48.870Z,6.32
2023-02-13T23:12:51.580Z,5.45
2023-02-13T23:18:14.034Z,4.30
2023-02-13T23:23:16.726Z,4.85
2023-02-13T23:28:19.308Z,5.10
2023-02-13T23:33:22.027Z,3.47
2023-02-13T23:38:25.175Z,3.45
2023-02-13T23:43:27.901Z,4.75
2023-02-13T23:48:30.591Z,4.20
2023-02-13T23:53:36.226Z,3.80
2023-02-13T23:58:38.874Z,3.35
